< < Back
Terminal Aerodrome Forecast


Current Version              Previous Versions:   1  2  3  4  5  6  7  8  9  

Terminal Aerodrome Forecast

742
FTUS42 KFFC 011342 AAA
TAFATL
TAF AMD
KATL 011342Z 0114/0218 26006KT P6SM BKN012
     FM011500 28007KT P6SM SCT025
     FM011600 28009KT P6SM SCT050
      TEMPO 0120/0124 VRB15G25KT 4SM TSRA BKN035CB
     FM020000 28006KT P6SM BKN100
     FM020800 26005KT P6SM SCT015 BKN050
     FM021400 27008KT P6SM BKN050=



Latest METAR

091
SAUS70 KWBC 011400 RRM
MTRATL
METAR KATL 011352Z 27007KT 8SM BKN010 BKN250 23/19 A3007 RMK AO2 SLP172
T02330194


USA.gov is the U.S. government's official web portal to all federal, state and local government web resources and services.